0J4

Florala Municipal Airport

Florala, Alabama, USA
METAR K0J4 120058Z AUTO 00000KT 10SM CLR 03/01 A3036 RMK AO2 SLP282 T00280011 $
Observed Flight Rules
Dec-12 @ 00:58 UTC (an hour ago) Visual Flight Rules
Visibility Clouds
10 miles
  • Clear skies
Temperatures Readings
Current 3°C / 37°F
Dewpoint 1°C / 34°F
Humidity 87%
Altimeter 30.36" Hg
Pressure 1028.2 hPa
Elevation 96
METAR K0J4 120058Z AUTO 00000KT 10SM CLR 03/01 A3036 RMK AO2 SLP282 T00280011 $
Observed Flight Rules
Dec-12 @ 00:58 UTC
(an hour ago)
VFR
Clouds
  • Clear skies
Temperature Dewpoint
3°C / 37°F 1°C / 34°F
Humidity Altimeter Pressure
87% 30.36" Hg 1028.2 hPa